createdAt,value
2022-11-03T00:01:46.252Z,99589.19
2022-11-03T00:04:16.096Z,99595.84
2022-11-03T00:06:46.540Z,99600.47
2022-11-03T00:09:18.056Z,99600.22
2022-11-03T00:11:47.203Z,99603.41
2022-11-03T00:14:15.970Z,99603.41
2022-11-03T00:16:46.142Z,99595.09
2022-11-03T00:19:16.325Z,99597.88
2022-11-03T00:21:45.004Z,99598.88
2022-11-03T00:24:14.065Z,99601.34
2022-11-03T00:26:42.275Z,99599.09
2022-11-03T00:29:12.420Z,99600.09
2022-11-03T00:31:42.194Z,99597.63
2022-11-03T00:34:12.099Z,99593.38
2022-11-03T00:36:42.344Z,99587.50
2022-11-03T00:39:11.458Z,99593.94
2022-11-03T00:41:40.295Z,99586.25
2022-11-03T00:44:10.724Z,99585.81
2022-11-03T00:46:39.214Z,99573.88
2022-11-03T00:49:07.387Z,99576.84
2022-11-03T00:51:37.294Z,99573.59
2022-11-03T00:54:07.549Z,99571.16
2022-11-03T00:56:37.186Z,99564.28
2022-11-03T00:59:06.552Z,99569.72
2022-11-03T01:01:42.138Z,99557.75
2022-11-03T01:04:31.350Z,99568.06
2022-11-03T01:07:02.497Z,99548.88
2022-11-03T01:09:32.529Z,99556.75
2022-11-03T01:12:01.986Z,99553.31
2022-11-03T01:14:33.173Z,99553.88
2022-11-03T01:17:01.260Z,99549.63
2022-11-03T01:19:29.430Z,99542.75
2022-11-03T01:21:57.564Z,99544.38
2022-11-03T01:24:27.211Z,99540.72
2022-11-03T01:26:55.423Z,99532.25
2022-11-03T01:29:23.614Z,99528.97
2022-11-03T01:31:51.675Z,99529.63
2022-11-03T01:34:21.595Z,99520.47
2022-11-03T01:36:50.109Z,99527.16
2022-11-03T01:39:19.543Z,99522.75
2022-11-03T01:41:51.549Z,99530.44
2022-11-03T01:44:29.668Z,99525.38
2022-11-03T01:47:04.564Z,99518.66
2022-11-03T01:49:38.153Z,99518.84
2022-11-03T01:52:09.940Z,99513.59
2022-11-03T01:54:40.461Z,99510.53
2022-11-03T01:57:13.647Z,99508.72
2022-11-03T01:59:42.487Z,99522.03
2022-11-03T02:02:10.945Z,99522.03
2022-11-03T02:04:39.782Z,99519.56
2022-11-03T02:07:16.918Z,99512.69
2022-11-03T02:09:45.083Z,99522.19
2022-11-03T02:12:17.156Z,99512.50
2022-11-03T02:14:51.738Z,99515.13
2022-11-03T02:17:23.265Z,99509.88
2022-11-03T02:19:53.746Z,99509.06
2022-11-03T02:22:36.175Z,99511.69
2022-11-03T02:25:16.589Z,99507.44
2022-11-03T02:27:47.016Z,99509.47
2022-11-03T02:30:15.201Z,99526.03
2022-11-03T02:32:56.010Z,99511.09
2022-11-03T02:35:30.867Z,99516.69
2022-11-03T02:38:02.352Z,99516.69
2022-11-03T02:40:32.788Z,99516.69
2022-11-03T02:43:04.978Z,99525.38
2022-11-03T02:45:33.365Z,99521.94
2022-11-03T02:48:04.231Z,99529.81
2022-11-03T02:50:34.790Z,99527.19
2022-11-03T02:53:03.154Z,99530.03
2022-11-03T02:55:38.277Z,99531.63
2022-11-03T02:58:16.491Z,99528.41
2022-11-03T03:00:51.240Z,99536.44
2022-11-03T03:03:23.548Z,99535.22
2022-11-03T03:05:57.814Z,99534.38
2022-11-03T03:08:28.559Z,99537.19
2022-11-03T03:10:58.954Z,99536.56
2022-11-03T03:13:28.734Z,99530.66
2022-11-03T03:16:07.428Z,99521.53
2022-11-03T03:18:49.499Z,99506.97
2022-11-03T03:21:22.513Z,99515.06
2022-11-03T03:23:56.942Z,99506.53
2022-11-03T03:26:29.827Z,99503.09
2022-11-03T03:29:05.152Z,99505.72
2022-11-03T03:31:39.680Z,99496.22
2022-11-03T03:34:31.389Z,99490.16
2022-11-03T03:37:01.117Z,99486.53
2022-11-03T03:39:33.679Z,99476.03
2022-11-03T03:42:04.683Z,99481.28
2022-11-03T03:44:35.510Z,99474.03
2022-11-03T03:47:08.494Z,99469.78
2022-11-03T03:49:36.684Z,99476.84
2022-11-03T03:52:05.460Z,99473.22
2022-11-03T03:54:33.735Z,99473.22
2022-11-03T03:57:04.611Z,99467.78
2022-11-03T03:59:34.307Z,99469.56
2022-11-03T04:02:03.195Z,99466.78
2022-11-03T04:04:31.447Z,99475.28
2022-11-03T04:07:13.350Z,99466.59
2022-11-03T04:09:41.410Z,99463.16
2022-11-03T04:12:27.255Z,99462.34
2022-11-03T04:15:14.144Z,99464.16
2022-11-03T04:18:02.775Z,99468.78
2022-11-03T04:20:49.294Z,99463.72
2022-11-03T04:23:17.561Z,99463.91
2022-11-03T04:25:49.777Z,99465.53
2022-11-03T04:28:18.264Z,99465.72
2022-11-03T04:30:48.114Z,99464.06
2022-11-03T04:33:18.035Z,99467.69
2022-11-03T04:35:47.345Z,99466.88
2022-11-03T04:38:24.317Z,99479.22
2022-11-03T04:40:56.454Z,99479.22
2022-11-03T04:43:31.239Z,99485.25
2022-11-03T04:46:01.047Z,99487.28
2022-11-03T04:48:30.331Z,99489.72
2022-11-03T04:51:01.072Z,99485.47
2022-11-03T04:53:31.947Z,99491.31
2022-11-03T04:56:06.983Z,99492.53
2022-11-03T04:58:37.183Z,99490.88
2022-11-03T05:01:13.902Z,99499.75
2022-11-03T05:03:43.459Z,99498.13
2022-11-03T05:06:15.404Z,99503.38
2022-11-03T05:08:45.348Z,99507.34
2022-11-03T05:11:22.253Z,99500.66
2022-11-03T05:13:52.345Z,99501.22
2022-11-03T05:16:22.179Z,99500.38
2022-11-03T05:18:51.398Z,99497.13
2022-11-03T05:21:23.251Z,99498.94
2022-11-03T05:23:54.247Z,99491.06
2022-11-03T05:26:26.059Z,99489.44
2022-11-03T05:28:59.979Z,99491.06
2022-11-03T05:31:32.384Z,99488.25
2022-11-03T05:34:03.246Z,99491.06
2022-11-03T05:36:33.099Z,99485.81
2022-11-03T05:39:18.464Z,99480.56
2022-11-03T05:41:46.580Z,99481.56
2022-11-03T05:44:30.164Z,99472.88
2022-11-03T05:47:03.237Z,99477.13
2022-11-03T05:49:34.129Z,99479.75
2022-11-03T05:52:02.249Z,99481.38
2022-11-03T05:54:35.280Z,99479.56
2022-11-03T05:57:03.378Z,99476.94
2022-11-03T05:59:31.913Z,99474.66
2022-11-03T06:02:02.587Z,99462.56
2022-11-03T06:04:36.913Z,99462.75
2022-11-03T06:07:14.276Z,99458.50
2022-11-03T06:09:42.368Z,99457.84
2022-11-03T06:12:16.817Z,99447.34
2022-11-03T06:14:45.398Z,99446.75
2022-11-03T06:17:23.554Z,99448.56
2022-11-03T06:19:55.145Z,99456.59
2022-11-03T06:22:25.838Z,99456.78
2022-11-03T06:24:56.501Z,99463.84
2022-11-03T06:27:27.684Z,99463.38
2022-11-03T06:30:00.410Z,99464.56
2022-11-03T06:32:30.605Z,99457.69
2022-11-03T06:35:01.081Z,99461.16
2022-11-03T06:37:33.868Z,99454.09
2022-11-03T06:40:05.793Z,99459.69
2022-11-03T06:42:34.456Z,99458.06
2022-11-03T06:45:13.534Z,99461.69
2022-11-03T06:47:43.175Z,99462.84
2022-11-03T06:50:23.486Z,99450.09
2022-11-03T06:52:52.679Z,99453.09
2022-11-03T06:55:26.556Z,99448.00
2022-11-03T06:57:59.025Z,99452.63
2022-11-03T07:00:38.581Z,99446.78
2022-11-03T07:03:15.970Z,99446.94
2022-11-03T07:05:46.355Z,99441.69
2022-11-03T07:08:28.181Z,99440.88
2022-11-03T07:11:02.810Z,99444.31
2022-11-03T07:13:33.877Z,99436.84
2022-11-03T07:16:02.448Z,99434.38
2022-11-03T07:18:36.486Z,99426.34
2022-11-03T07:21:08.646Z,99427.16
2022-11-03T07:23:36.852Z,99419.44
2022-11-03T07:26:06.186Z,99418.63
2022-11-03T07:28:37.919Z,99413.38
2022-11-03T07:31:17.246Z,99415.19
2022-11-03T07:33:47.460Z,99412.59
2022-11-03T07:36:20.029Z,99417.63
2022-11-03T07:38:52.435Z,99409.59
2022-11-03T07:41:23.963Z,99412.84
2022-11-03T07:43:57.310Z,99406.44
2022-11-03T07:46:25.782Z,99406.25
2022-11-03T07:48:57.783Z,99398.19
2022-11-03T07:51:29.973Z,99404.88
2022-11-03T07:54:03.546Z,99400.91
2022-11-03T07:56:36.866Z,99401.72
2022-11-03T07:59:17.634Z,99401.53
2022-11-03T08:01:49.536Z,99390.88
2022-11-03T08:04:23.042Z,99389.88
2022-11-03T08:06:51.517Z,99401.16
2022-11-03T08:09:20.031Z,99392.28
2022-11-03T08:11:48.805Z,99391.13
2022-11-03T08:14:17.221Z,99392.75
2022-11-03T08:16:45.577Z,99389.94
2022-11-03T08:19:13.877Z,99387.75
2022-11-03T08:21:43.503Z,99394.47
2022-11-03T08:24:11.696Z,99390.44
2022-11-03T08:26:39.806Z,99390.28
2022-11-03T08:29:07.984Z,99386.47
2022-11-03T08:31:36.139Z,99391.34
2022-11-03T08:34:04.308Z,99388.16
2022-11-03T08:36:32.612Z,99373.84
2022-11-03T08:39:02.262Z,99375.50
2022-11-03T08:41:30.448Z,99372.94
2022-11-03T08:43:58.665Z,99370.56
2022-11-03T08:46:26.860Z,99364.75
2022-11-03T08:48:55.063Z,99366.88
2022-11-03T08:51:23.316Z,99365.25
2022-11-03T08:53:54.187Z,99365.50
2022-11-03T08:56:23.930Z,99370.38
2022-11-03T08:58:52.400Z,99368.00
2022-11-03T09:01:20.586Z,99370.69
2022-11-03T09:03:48.715Z,99363.88
2022-11-03T09:06:17.151Z,99362.09
2022-11-03T09:11:36.073Z,99367.09
2022-11-03T09:14:04.652Z,99363.47
2022-11-03T09:16:32.900Z,99359.09
2022-11-03T09:19:01.034Z,99361.38
2022-11-03T09:21:29.235Z,99362.84
2022-11-03T09:23:59.521Z,99351.97
2022-11-03T09:26:28.311Z,99342.13
2022-11-03T09:28:57.923Z,99344.81
2022-11-03T09:31:28.587Z,99334.72
2022-11-03T09:33:56.976Z,99332.75
2022-11-03T09:36:25.175Z,99331.72
2022-11-03T09:38:53.311Z,99328.94
2022-11-03T09:41:27.768Z,99325.50
2022-11-03T09:44:00.512Z,99327.13
2022-11-03T09:46:31.097Z,99332.84
2022-11-03T09:49:00.420Z,99334.88
2022-11-03T09:51:29.484Z,99335.47
2022-11-03T09:54:00.509Z,99333.44
2022-11-03T09:56:28.982Z,99340.16
2022-11-03T09:58:58.679Z,99336.31
2022-11-03T10:01:26.882Z,99332.47
2022-11-03T10:04:03.079Z,99329.22
2022-11-03T10:06:31.274Z,99335.94
2022-11-03T10:08:59.407Z,99341.41
2022-11-03T10:11:27.694Z,99340.59
2022-11-03T10:13:59.131Z,99343.03
2022-11-03T10:16:27.932Z,99353.97
2022-11-03T10:18:56.402Z,99348.50
2022-11-03T10:21:28.998Z,99341.00
2022-11-03T10:23:57.144Z,99342.78
2022-11-03T10:26:25.372Z,99347.22
2022-11-03T10:29:01.873Z,99350.25
2022-11-03T10:31:35.606Z,99348.00
2022-11-03T10:34:04.313Z,99346.16
2022-11-03T10:36:34.404Z,99345.94
2022-11-03T10:39:25.196Z,99333.94
2022-11-03T10:41:57.605Z,99333.09
2022-11-03T10:44:28.241Z,99323.53
2022-11-03T10:47:00.917Z,99328.19
2022-11-03T10:49:30.437Z,99329.19
2022-11-03T10:52:14.511Z,99336.31
2022-11-03T10:54:42.748Z,99333.03
2022-11-03T10:57:10.941Z,99336.66
2022-11-03T10:59:41.011Z,99333.38
2022-11-03T11:02:18.625Z,99323.84
2022-11-03T11:04:49.330Z,99329.94
2022-11-03T11:07:24.983Z,99325.03
2022-11-03T11:09:54.286Z,99327.25
2022-11-03T11:12:25.019Z,99320.75
2022-11-03T11:14:57.741Z,99312.19
2022-11-03T11:17:56.001Z,99311.00
2022-11-03T11:20:33.836Z,99310.72
2022-11-03T11:23:52.843Z,99313.97
2022-11-03T11:26:42.150Z,99322.28
2022-11-03T11:29:44.194Z,99325.91
2022-11-03T11:32:48.188Z,99327.50
2022-11-03T11:35:38.729Z,99327.09
2022-11-03T11:38:56.477Z,99328.09
2022-11-03T11:41:58.003Z,99335.00
2022-11-03T11:44:49.980Z,99348.06
2022-11-03T11:47:27.000Z,99348.88
2022-11-03T11:50:11.710Z,99338.38
2022-11-03T11:52:44.291Z,99339.41
2022-11-03T11:55:20.231Z,99332.53
2022-11-03T11:57:49.159Z,99334.38
2022-11-03T12:00:22.542Z,99330.75
2022-11-03T12:02:51.498Z,99327.47
2022-11-03T12:05:21.680Z,99325.06
2022-11-03T12:07:51.411Z,99317.19
2022-11-03T12:10:22.852Z,99319.66
2022-11-03T12:12:51.650Z,99316.41
2022-11-03T12:15:52.055Z,99322.16
2022-11-03T12:18:39.137Z,99325.41
2022-11-03T12:21:11.418Z,99336.81
2022-11-03T12:23:43.549Z,99324.06
2022-11-03T12:26:19.604Z,99328.75
2022-11-03T12:28:47.830Z,99315.38
2022-11-03T12:31:15.968Z,99308.91
2022-11-03T12:33:44.161Z,99311.94
2022-11-03T12:36:12.448Z,99314.19
2022-11-03T12:38:42.561Z,99312.75
2022-11-03T12:41:24.254Z,99321.06
2022-11-03T12:43:54.381Z,99306.28
2022-11-03T12:46:23.703Z,99297.78
2022-11-03T12:48:52.571Z,99303.06
2022-11-03T12:51:22.721Z,99297.16
2022-11-03T12:53:52.754Z,99285.81
2022-11-03T12:56:20.973Z,99283.97
2022-11-03T12:58:49.215Z,99279.31
2022-11-03T13:01:17.567Z,99274.66
2022-11-03T13:03:45.913Z,99272.81
2022-11-03T13:06:14.970Z,99276.66
2022-11-03T13:08:44.706Z,99273.22
2022-11-03T13:11:33.883Z,99260.66
2022-11-03T13:14:01.991Z,99264.91
2022-11-03T13:16:30.131Z,99267.72
2022-11-03T13:18:58.325Z,99260.41
2022-11-03T13:21:26.405Z,99252.91
2022-11-03T13:23:56.353Z,99254.09
2022-11-03T13:26:26.009Z,99252.06
2022-11-03T13:28:54.252Z,99253.06
2022-11-03T13:31:22.399Z,99247.16
2022-11-03T13:33:51.060Z,99245.34
2022-11-03T13:36:19.396Z,99244.91
2022-11-03T13:38:47.622Z,99238.00
2022-11-03T13:41:15.866Z,99235.16
2022-11-03T13:43:45.467Z,99233.75
2022-11-03T13:46:13.484Z,99244.09
2022-11-03T13:51:29.622Z,99237.41
2022-11-03T13:59:35.842Z,99229.75
2022-11-03T14:04:52.658Z,99237.03
2022-11-03T14:07:20.836Z,99234.63
2022-11-03T14:09:48.953Z,99232.19
2022-11-03T14:12:32.151Z,99231.59
2022-11-03T14:15:04.208Z,99229.38
2022-11-03T14:17:32.618Z,99233.84
2022-11-03T14:20:04.478Z,99228.97
2022-11-03T14:22:33.664Z,99231.84
2022-11-03T14:25:02.336Z,99224.13
2022-11-03T14:27:30.511Z,99231.44
2022-11-03T14:29:58.817Z,99225.53
2022-11-03T14:32:28.365Z,99221.28
2022-11-03T14:34:56.674Z,99223.53
2022-11-03T14:37:25.499Z,99217.44
2022-11-03T14:39:53.879Z,99215.22
2022-11-03T14:42:21.461Z,99209.94
2022-11-03T14:44:49.774Z,99213.59
2022-11-03T14:47:21.385Z,99205.91
2022-11-03T14:49:51.271Z,99203.06
2022-11-03T14:52:19.476Z,99207.53
2022-11-03T14:54:47.627Z,99208.75
2022-11-03T14:57:15.757Z,99205.28
2022-11-03T14:59:46.762Z,99200.84
2022-11-03T15:02:17.451Z,99205.28
2022-11-03T15:04:45.736Z,99204.91
2022-11-03T15:07:15.353Z,99205.91
2022-11-03T15:09:43.564Z,99213.03
2022-11-03T15:12:11.784Z,99218.91
2022-11-03T15:14:40.094Z,99220.53
2022-11-03T15:17:08.278Z,99218.91
2022-11-03T15:19:36.472Z,99216.50
2022-11-03T15:22:04.788Z,99213.06
2022-11-03T15:27:22.495Z,99217.72
2022-11-03T15:29:50.655Z,99219.75
2022-11-03T15:32:18.913Z,99216.50
2022-11-03T15:34:47.045Z,99221.41
2022-11-03T15:37:15.776Z,99225.25
2022-11-03T15:39:45.419Z,99221.41
2022-11-03T15:42:13.639Z,99229.91
2022-11-03T15:44:41.798Z,99231.13
2022-11-03T15:47:09.914Z,99228.72
2022-11-03T15:49:38.002Z,99231.97
2022-11-03T15:52:06.695Z,99230.34
2022-11-03T15:54:39.809Z,99238.44
2022-11-03T15:57:11.768Z,99247.16
2022-11-03T15:59:40.237Z,99255.09
2022-11-03T16:02:27.764Z,99257.50
2022-11-03T16:04:57.280Z,99267.63
2022-11-03T16:07:26.220Z,99274.72
2022-11-03T16:09:54.340Z,99278.97
2022-11-03T16:12:24.571Z,99289.94
2022-11-03T16:14:53.004Z,99293.38
2022-11-03T16:17:22.920Z,99294.59
2022-11-03T16:19:51.850Z,99298.25
2022-11-03T16:22:20.001Z,99299.03
2022-11-03T16:24:48.837Z,99305.34
2022-11-03T16:27:16.937Z,99307.75
2022-11-03T16:29:46.516Z,99315.88
2022-11-03T16:32:14.769Z,99315.88
2022-11-03T16:34:42.909Z,99317.69
2022-11-03T16:37:10.995Z,99314.03
2022-11-03T16:39:40.236Z,99330.22
2022-11-03T16:42:08.391Z,99338.13
2022-11-03T16:44:36.676Z,99340.78
2022-11-03T16:47:06.739Z,99345.03
2022-11-03T16:49:35.387Z,99347.66
2022-11-03T16:52:03.500Z,99351.13
2022-11-03T16:54:31.655Z,99354.34
2022-11-03T16:56:59.927Z,99358.81
2022-11-03T16:59:28.146Z,99354.75
2022-11-03T17:01:57.067Z,99362.06
2022-11-03T17:04:26.707Z,99364.91
2022-11-03T17:06:54.933Z,99364.06
2022-11-03T17:09:23.024Z,99367.53
2022-11-03T17:11:51.139Z,99371.97
2022-11-03T17:14:19.388Z,99374.59
2022-11-03T17:16:48.736Z,99382.31
2022-11-03T17:19:17.026Z,99376.22
2022-11-03T17:21:46.505Z,99385.97
2022-11-03T17:24:14.752Z,99402.75
2022-11-03T17:26:52.902Z,99409.41
2022-11-03T17:29:24.065Z,99412.13
2022-11-03T17:31:52.394Z,99419.97
2022-11-03T17:34:23.950Z,99419.53
2022-11-03T17:36:54.401Z,99424.94
2022-11-03T17:39:29.396Z,99414.75
2022-11-03T17:42:12.447Z,99421.41
2022-11-03T17:44:40.522Z,99434.56
2022-11-03T17:47:09.044Z,99435.56
2022-11-03T17:49:37.225Z,99440.66
2022-11-03T17:52:07.692Z,99449.16
2022-11-03T17:54:35.996Z,99442.28
2022-11-03T17:57:05.321Z,99457.06
2022-11-03T17:59:34.665Z,99448.97
2022-11-03T18:02:03.959Z,99463.94
2022-11-03T18:04:32.349Z,99460.91
2022-11-03T18:07:01.479Z,99475.50
2022-11-03T18:09:31.019Z,99470.88
2022-11-03T18:12:16.489Z,99481.19
2022-11-03T18:14:44.717Z,99485.44
2022-11-03T18:17:13.029Z,99496.59
2022-11-03T18:19:41.687Z,99505.09
2022-11-03T18:22:10.679Z,99504.09
2022-11-03T18:24:40.274Z,99511.00
2022-11-03T18:27:12.036Z,99510.78
2022-11-03T18:29:40.235Z,99523.75
2022-11-03T18:32:16.037Z,99537.13
2022-11-03T18:34:44.298Z,99541.59
2022-11-03T18:37:13.066Z,99545.88
2022-11-03T18:39:42.731Z,99550.94
2022-11-03T18:42:15.405Z,99563.06
2022-11-03T18:44:44.577Z,99573.59
2022-11-03T18:47:12.811Z,99569.56
2022-11-03T18:49:41.313Z,99577.63
2022-11-03T18:52:15.320Z,99588.13
2022-11-03T18:54:47.128Z,99597.41
2022-11-03T18:57:15.460Z,99609.97
2022-11-03T18:59:45.980Z,99616.41
2022-11-03T19:02:18.042Z,99628.75
2022-11-03T19:04:46.710Z,99637.84
2022-11-03T19:07:19.362Z,99651.16
2022-11-03T19:09:49.033Z,99653.00
2022-11-03T19:12:17.291Z,99662.69
2022-11-03T19:14:47.857Z,99673.22
2022-11-03T19:17:23.405Z,99674.22
2022-11-03T19:19:52.687Z,99684.75
2022-11-03T19:22:22.294Z,99692.66
2022-11-03T19:24:51.873Z,99700.34
2022-11-03T19:27:23.990Z,99703.16
2022-11-03T19:29:52.587Z,99705.00
2022-11-03T19:32:25.968Z,99705.00
2022-11-03T19:35:00.166Z,99710.25
2022-11-03T19:37:35.107Z,99718.16
2022-11-03T19:40:09.278Z,99726.03
2022-11-03T19:42:40.424Z,99722.75
2022-11-03T19:45:12.359Z,99728.22
2022-11-03T19:50:35.549Z,99736.06
2022-11-03T19:53:07.071Z,99746.13
2022-11-03T19:55:40.512Z,99744.84
2022-11-03T19:58:15.446Z,99759.22
2022-11-03T20:00:43.918Z,99757.28
2022-11-03T20:03:13.128Z,99768.19
2022-11-03T20:05:46.393Z,99773.81
2022-11-03T20:08:19.963Z,99783.88
2022-11-03T20:10:49.884Z,99796.56
2022-11-03T20:13:20.824Z,99799.56
2022-11-03T20:15:49.371Z,99806.00
2022-11-03T20:18:18.121Z,99815.91
2022-11-03T20:20:49.392Z,99823.13
2022-11-03T20:23:22.283Z,99824.94
2022-11-03T20:25:52.410Z,99839.28
2022-11-03T20:28:22.958Z,99844.53
2022-11-03T20:30:51.527Z,99847.53
2022-11-03T20:33:22.129Z,99853.59
2022-11-03T20:35:51.540Z,99858.03
2022-11-03T20:38:21.659Z,99865.91
2022-11-03T20:40:58.696Z,99867.13
2022-11-03T20:43:30.445Z,99870.72
2022-11-03T20:45:59.414Z,99877.78
2022-11-03T20:48:27.684Z,99880.59
2022-11-03T20:50:56.142Z,99885.19
2022-11-03T20:53:26.779Z,99887.03
2022-11-03T20:55:56.335Z,99893.94
2022-11-03T20:58:24.955Z,99895.09
2022-11-03T21:00:53.289Z,99900.53
2022-11-03T21:03:45.668Z,99908.75
2022-11-03T21:06:19.791Z,99920.63
2022-11-03T21:08:49.006Z,99923.44
2022-11-03T21:11:28.488Z,99932.47
2022-11-03T21:13:58.804Z,99936.44
2022-11-03T21:16:46.060Z,99940.25
2022-11-03T21:19:34.867Z,99943.22
2022-11-03T21:22:04.002Z,99944.56
2022-11-03T21:24:32.566Z,99961.31
2022-11-03T21:27:03.355Z,99973.97
2022-11-03T21:29:57.812Z,99975.78
2022-11-03T21:32:21.941Z,99989.13
2022-11-03T21:34:50.373Z,100000.78
2022-11-03T21:37:19.061Z,100000.31
2022-11-03T21:39:47.648Z,100005.72
2022-11-03T21:42:35.327Z,100020.84
2022-11-03T21:45:03.675Z,100026.44
2022-11-03T21:47:32.075Z,100039.75
2022-11-03T21:52:33.032Z,100066.88
2022-11-03T21:55:02.999Z,100069.66
2022-11-03T21:57:33.203Z,100089.19
2022-11-03T22:00:01.475Z,100103.31
2022-11-03T22:02:30.570Z,100113.19
2022-11-03T22:04:59.293Z,100114.31
2022-11-03T22:07:27.557Z,100123.53
2022-11-03T22:09:55.850Z,100129.94
2022-11-03T22:12:25.067Z,100140.75
2022-11-03T22:15:12.245Z,100142.88
2022-11-03T22:17:40.811Z,100154.53
2022-11-03T22:20:27.600Z,100163.56
2022-11-03T22:23:13.490Z,100165.53
2022-11-03T22:25:59.332Z,100170.13
2022-11-03T22:28:27.718Z,100181.63
2022-11-03T22:31:14.496Z,100193.09
2022-11-03T22:33:56.542Z,100204.59
2022-11-03T22:36:24.735Z,100213.59
2022-11-03T22:39:10.297Z,100220.84
2022-11-03T22:41:56.128Z,100232.47
2022-11-03T22:44:41.675Z,100231.66
2022-11-03T22:47:14.486Z,100229.03
2022-11-03T22:49:44.274Z,100229.38
2022-11-03T22:52:12.569Z,100240.19
2022-11-03T22:54:40.824Z,100244.09
2022-11-03T22:57:11.450Z,100259.84
2022-11-03T22:59:39.832Z,100257.53
2022-11-03T23:02:08.746Z,100260.50
2022-11-03T23:04:38.451Z,100271.81
2022-11-03T23:07:06.676Z,100287.56
2022-11-03T23:09:34.821Z,100284.13
2022-11-03T23:12:02.876Z,100282.47
2022-11-03T23:14:51.903Z,100291.19
2022-11-03T23:17:19.987Z,100305.41
2022-11-03T23:20:06.927Z,100311.81
2022-11-03T23:22:35.167Z,100312.78
2022-11-03T23:25:02.353Z,100308.69
2022-11-03T23:27:30.479Z,100309.81
2022-11-03T23:29:58.677Z,100308.19
2022-11-03T23:32:26.887Z,100313.59
2022-11-03T23:34:56.560Z,100311.13
2022-11-03T23:37:24.710Z,100325.22
2022-11-03T23:39:52.807Z,100331.28
2022-11-03T23:42:21.124Z,100347.38
2022-11-03T23:45:06.732Z,100336.88
2022-11-03T23:47:51.929Z,100331.75
2022-11-03T23:50:21.627Z,100332.44
2022-11-03T23:52:49.783Z,100326.69
2022-11-03T23:55:18.137Z,100332.75
2022-11-03T23:58:00.122Z,100329.31
